Terminal Aerodrome Forecast
Issued by NWS

Home | Current Version | Previous Version | Text Only | Print | Product List | Glossary On
Versions: 1 2 3 4 5 6 7 8 9 10 11 12 13
763
FTUS46 KMTR 271720
TAFSJC
TAF
KSJC 271720Z 2718/2818 30006KT P6SM FEW008 FEW015 SCT030
     FM272200 29011KT P6SM FEW020 FEW030
     FM280400 29005KT P6SM FEW035
     FM280800 29003KT P6SM FEW040=

USA.gov is the U.S. government's official web portal to all federal, state and local government web resources and services.